createdAt,value
2023-03-02T00:00:16.702Z,23.03
2023-03-02T00:03:18.762Z,25.60
2023-03-02T00:06:20.745Z,24.03
2023-03-02T00:09:23.087Z,25.60
2023-03-02T00:12:27.760Z,19.10
2023-03-02T00:15:29.842Z,18.73
2023-03-02T00:18:31.816Z,19.20
2023-03-02T00:21:34.102Z,15.70
2023-03-02T00:24:36.015Z,19.60
2023-03-02T00:27:38.246Z,17.40
2023-03-02T00:30:40.260Z,16.50
2023-03-02T00:33:42.557Z,21.67
2023-03-02T00:36:44.672Z,20.73
2023-03-02T00:39:46.982Z,16.30
2023-03-02T00:42:48.955Z,16.83
2023-03-02T00:45:50.901Z,21.80
2023-03-02T00:48:53.208Z,22.00
2023-03-02T00:51:55.108Z,22.17
2023-03-02T00:54:57.133Z,22.23
2023-03-02T00:57:59.594Z,18.60
2023-03-02T01:01:06.496Z,15.43
2023-03-02T01:04:09.094Z,17.53
2023-03-02T01:07:13.555Z,20.50
2023-03-02T01:10:16.589Z,20.53
2023-03-02T01:13:19.631Z,20.33
2023-03-02T01:16:21.722Z,15.50
2023-03-02T01:19:23.771Z,18.57
2023-03-02T01:22:26.468Z,19.10
2023-03-02T01:25:28.374Z,16.33
2023-03-02T01:28:30.348Z,16.87
2023-03-02T01:31:32.351Z,19.13
2023-03-02T01:34:34.398Z,17.00
2023-03-02T01:37:36.321Z,18.67
2023-03-02T01:40:38.312Z,17.77
2023-03-02T01:43:41.311Z,18.27
2023-03-02T01:46:43.341Z,14.13
2023-03-02T01:49:58.660Z,14.67
2023-03-02T01:53:01.395Z,14.53
2023-03-02T01:56:04.259Z,17.37
2023-03-02T01:59:08.703Z,17.17
2023-03-02T02:02:11.927Z,13.43
2023-03-02T02:05:22.130Z,15.27
2023-03-02T02:08:24.404Z,13.67
2023-03-02T02:11:26.883Z,14.27
2023-03-02T02:14:29.031Z,15.73
2023-03-02T02:17:32.836Z,14.07
2023-03-02T02:20:45.853Z,12.40
2023-03-02T02:24:02.307Z,12.53
2023-03-02T02:27:05.365Z,14.87
2023-03-02T02:30:08.110Z,11.40
2023-03-02T02:33:15.466Z,12.43
2023-03-02T02:36:26.223Z,10.23
2023-03-02T02:39:31.433Z,10.37
2023-03-02T02:42:36.572Z,14.97
2023-03-02T02:45:38.577Z,12.00
2023-03-02T02:48:40.572Z,11.40
2023-03-02T02:51:42.450Z,10.67
2023-03-02T02:54:47.948Z,8.87
2023-03-02T02:57:52.444Z,11.13
2023-03-02T03:00:55.538Z,13.03
2023-03-02T03:04:01.991Z,10.47
2023-03-02T03:07:06.880Z,10.97
2023-03-02T03:10:24.129Z,10.67
2023-03-02T03:13:26.326Z,9.97
2023-03-02T03:16:30.724Z,9.57
2023-03-02T03:19:33.523Z,10.70
2023-03-02T03:22:37.969Z,12.27
2023-03-02T03:25:41.755Z,11.37
2023-03-02T03:28:43.959Z,8.67
2023-03-02T03:31:46.099Z,7.57
2023-03-02T03:34:47.957Z,8.33
2023-03-02T03:37:50.421Z,6.30
2023-03-02T03:40:52.424Z,6.67
2023-03-02T03:43:55.876Z,6.90
2023-03-02T03:46:58.193Z,9.33
2023-03-02T03:50:00.461Z,9.67
2023-03-02T03:53:03.829Z,7.73
2023-03-02T03:56:08.546Z,5.70
2023-03-02T03:59:13.959Z,7.37
2023-03-02T04:02:16.073Z,6.67
2023-03-02T04:05:18.429Z,7.30
2023-03-02T04:08:20.776Z,5.53
2023-03-02T04:11:22.717Z,10.50
2023-03-02T04:14:25.503Z,8.47
2023-03-02T04:17:28.487Z,7.87
2023-03-02T04:20:31.061Z,6.40
2023-03-02T04:23:32.966Z,7.83
2023-03-02T04:26:36.235Z,10.23
2023-03-02T04:29:38.580Z,8.67
2023-03-02T04:32:41.016Z,5.87
2023-03-02T04:35:43.003Z,9.47
2023-03-02T04:38:46.895Z,8.93
2023-03-02T04:41:49.437Z,12.20
2023-03-02T04:44:51.365Z,11.83
2023-03-02T04:47:53.308Z,10.90
2023-03-02T04:50:55.184Z,7.43
2023-03-02T04:53:59.942Z,5.53
2023-03-02T04:57:02.704Z,9.47
2023-03-02T05:00:05.477Z,3.60
2023-03-02T05:03:07.595Z,5.17
2023-03-02T05:06:10.573Z,9.60
2023-03-02T05:09:12.572Z,7.80
2023-03-02T05:12:14.548Z,7.17
2023-03-02T05:15:16.583Z,8.90
2023-03-02T05:18:20.629Z,8.97
2023-03-02T05:21:23.503Z,9.63
2023-03-02T05:24:25.985Z,8.80
2023-03-02T05:27:27.843Z,7.30
2023-03-02T05:30:31.125Z,11.57
2023-03-02T05:33:33.100Z,12.87
2023-03-02T05:36:35.646Z,8.40
2023-03-02T05:39:37.936Z,6.97
2023-03-02T05:42:41.335Z,9.57
2023-03-02T05:45:43.296Z,14.57
2023-03-02T05:48:46.192Z,8.47
2023-03-02T05:51:48.118Z,8.30
2023-03-02T05:54:50.185Z,13.17
2023-03-02T05:57:53.329Z,10.77
2023-03-02T06:00:58.361Z,10.13
2023-03-02T06:04:00.409Z,10.40
2023-03-02T06:07:02.333Z,10.83
2023-03-02T06:10:05.691Z,9.70
2023-03-02T06:13:08.240Z,8.40
2023-03-02T06:16:10.596Z,9.10
2023-03-02T06:19:12.574Z,8.77
2023-03-02T06:22:14.530Z,9.67
2023-03-02T06:25:19.666Z,10.97
2023-03-02T06:28:22.147Z,12.77
2023-03-02T06:31:24.143Z,6.97
2023-03-02T06:34:26.269Z,10.27
2023-03-02T06:37:30.303Z,10.13
2023-03-02T06:40:32.217Z,9.43
2023-03-02T06:43:34.265Z,9.33
2023-03-02T06:46:38.262Z,5.53
2023-03-02T06:49:40.334Z,4.13
2023-03-02T06:52:42.250Z,5.37
2023-03-02T06:55:44.700Z,5.40
2023-03-02T06:58:46.697Z,6.83
2023-03-02T07:01:51.076Z,5.63
2023-03-02T07:04:53.037Z,5.43
2023-03-02T07:07:55.003Z,6.20
2023-03-02T07:10:57.106Z,4.90
2023-03-02T07:14:00.898Z,4.43
2023-03-02T07:17:05.184Z,6.40
2023-03-02T07:20:08.341Z,5.10
2023-03-02T07:23:10.201Z,11.23
2023-03-02T07:26:12.279Z,8.17
2023-03-02T07:29:14.179Z,6.73
2023-03-02T07:32:16.251Z,8.03
2023-03-02T07:35:18.668Z,6.97
2023-03-02T07:38:20.664Z,9.03
2023-03-02T07:41:23.261Z,8.33
2023-03-02T07:44:25.242Z,6.27
2023-03-02T07:47:27.203Z,7.97
2023-03-02T07:50:29.243Z,6.93
2023-03-02T07:53:31.448Z,8.53
2023-03-02T07:56:33.372Z,7.80
2023-03-02T07:59:35.261Z,6.90
2023-03-02T08:02:37.293Z,6.27
2023-03-02T08:05:39.216Z,5.30
2023-03-02T08:08:41.139Z,6.53
2023-03-02T08:11:43.087Z,4.50
2023-03-02T08:14:46.336Z,4.40
2023-03-02T08:17:48.471Z,5.90
2023-03-02T08:20:50.452Z,5.93
2023-03-02T08:23:52.696Z,7.00
2023-03-02T08:26:55.572Z,6.93
2023-03-02T08:29:57.414Z,5.67
2023-03-02T08:33:02.182Z,7.17
2023-03-02T08:36:08.520Z,9.30
2023-03-02T08:39:11.307Z,4.80
2023-03-02T08:42:13.297Z,4.50
2023-03-02T08:45:15.540Z,6.50
2023-03-02T08:48:17.493Z,5.63
2023-03-02T08:51:22.526Z,8.67
2023-03-02T08:54:24.399Z,9.43
2023-03-02T08:57:26.890Z,10.13
2023-03-02T09:00:31.242Z,10.53
2023-03-02T09:03:33.681Z,11.73
2023-03-02T09:06:38.214Z,9.73
2023-03-02T09:09:41.074Z,11.30
2023-03-02T09:12:42.981Z,10.87
2023-03-02T09:15:45.606Z,10.27
2023-03-02T09:18:48.164Z,11.40
2023-03-02T09:21:50.280Z,12.63
2023-03-02T09:24:52.281Z,10.40
2023-03-02T09:27:54.243Z,10.87
2023-03-02T09:31:01.599Z,14.40
2023-03-02T09:34:04.602Z,12.50
2023-03-02T09:37:06.456Z,10.73
2023-03-02T09:40:22.896Z,8.23
2023-03-02T09:43:45.990Z,11.50
2023-03-02T09:47:03.649Z,11.30
2023-03-02T09:50:12.067Z,7.63
2023-03-02T09:53:24.138Z,6.20
2023-03-02T09:56:26.641Z,8.53
2023-03-02T09:59:41.768Z,8.73
2023-03-02T10:03:02.473Z,9.57
2023-03-02T10:06:08.967Z,7.07
2023-03-02T10:09:11.499Z,8.93
2023-03-02T10:12:48.934Z,13.67
2023-03-02T10:16:22.843Z,7.87
2023-03-02T10:19:41.942Z,9.87
2023-03-02T10:22:50.225Z,7.63
2023-03-02T10:26:02.435Z,7.63
2023-03-02T10:29:41.944Z,6.40
2023-03-02T10:32:50.918Z,8.27
2023-03-02T10:35:54.190Z,7.87
2023-03-02T10:38:59.037Z,8.33
2023-03-02T10:42:04.453Z,9.10
2023-03-02T10:45:21.275Z,10.33
2023-03-02T10:48:23.327Z,11.27
2023-03-02T10:51:35.556Z,11.90
2023-03-02T10:54:37.512Z,11.73
2023-03-02T10:57:44.446Z,9.73
2023-03-02T11:00:59.573Z,11.80
2023-03-02T11:04:02.576Z,8.50
2023-03-02T11:07:19.580Z,9.93
2023-03-02T11:10:24.112Z,12.00
2023-03-02T11:13:28.920Z,9.80
2023-03-02T11:16:32.709Z,8.57
2023-03-02T11:19:40.006Z,10.73
2023-03-02T11:23:10.104Z,7.13
2023-03-02T11:26:28.483Z,7.30
2023-03-02T11:29:33.597Z,11.67
2023-03-02T11:32:43.201Z,9.17
2023-03-02T11:35:48.239Z,8.07
2023-03-02T11:38:55.213Z,6.37
2023-03-02T11:41:57.562Z,7.23
2023-03-02T11:45:03.590Z,6.13
2023-03-02T11:48:24.577Z,6.80
2023-03-02T11:51:33.848Z,8.47
2023-03-02T11:54:40.173Z,11.00
2023-03-02T11:57:51.405Z,9.97
2023-03-02T12:00:54.280Z,9.87
2023-03-02T12:04:25.836Z,10.40
2023-03-02T12:07:28.391Z,10.90
2023-03-02T12:10:37.304Z,7.47
2023-03-02T12:13:40.751Z,8.10
2023-03-02T12:16:43.438Z,9.77
2023-03-02T12:19:46.541Z,9.07
2023-03-02T12:22:48.520Z,9.80
2023-03-02T12:25:51.666Z,8.47
2023-03-02T12:29:14.243Z,11.30
2023-03-02T12:32:19.336Z,9.90
2023-03-02T12:35:22.879Z,10.50
2023-03-02T12:38:37.316Z,10.63
2023-03-02T12:42:17.895Z,11.30
2023-03-02T12:45:53.877Z,12.70
2023-03-02T12:49:14.464Z,12.00
2023-03-02T12:52:34.192Z,11.20
2023-03-02T12:55:38.983Z,9.17
2023-03-02T12:58:41.227Z,8.80
2023-03-02T13:01:43.117Z,9.50
2023-03-02T13:04:45.635Z,9.53
2023-03-02T13:07:58.253Z,7.50
2023-03-02T13:11:03.661Z,6.90
2023-03-02T13:14:21.093Z,6.77
2023-03-02T13:17:31.211Z,8.93
2023-03-02T13:20:33.616Z,10.33
2023-03-02T13:23:35.903Z,9.87
2023-03-02T13:26:40.061Z,7.73
2023-03-02T13:29:41.897Z,9.27
2023-03-02T13:32:44.547Z,9.73
2023-03-02T13:35:47.851Z,12.43
2023-03-02T13:38:52.230Z,13.23
2023-03-02T13:41:56.784Z,8.37
2023-03-02T13:45:28.906Z,13.77
2023-03-02T13:48:31.947Z,11.30
2023-03-02T13:51:42.757Z,9.73
2023-03-02T13:54:46.104Z,13.70
2023-03-02T13:57:50.156Z,11.87
2023-03-02T14:00:52.568Z,9.20
2023-03-02T14:03:57.119Z,14.20
2023-03-02T14:06:59.266Z,11.17
2023-03-02T14:10:01.180Z,12.17
2023-03-02T14:13:06.658Z,9.67
2023-03-02T14:16:12.532Z,12.07
2023-03-02T14:19:18.497Z,9.90
2023-03-02T14:22:22.009Z,9.23
2023-03-02T14:25:24.872Z,14.00
2023-03-02T14:28:35.643Z,10.40
2023-03-02T14:31:37.564Z,12.27
2023-03-02T14:34:40.196Z,9.83
2023-03-02T14:37:46.498Z,9.93
2023-03-02T14:40:48.486Z,10.97
2023-03-02T14:43:51.069Z,14.70
2023-03-02T14:46:53.379Z,11.93
2023-03-02T14:49:55.472Z,10.63
2023-03-02T14:52:58.367Z,15.30
2023-03-02T14:56:01.360Z,13.47
2023-03-02T14:59:03.671Z,11.60
2023-03-02T15:02:19.023Z,10.97
2023-03-02T15:05:26.739Z,13.77
2023-03-02T15:08:29.622Z,10.27
2023-03-02T15:11:32.616Z,11.10
2023-03-02T15:14:34.967Z,10.30
2023-03-02T15:17:36.998Z,10.27
2023-03-02T15:20:40.219Z,11.37
2023-03-02T15:23:42.249Z,10.27
2023-03-02T15:26:44.129Z,11.07
2023-03-02T15:29:47.303Z,12.20
2023-03-02T15:32:49.150Z,12.03
2023-03-02T15:35:55.352Z,13.47
2023-03-02T15:38:57.604Z,10.43
2023-03-02T15:41:59.833Z,15.07
2023-03-02T15:45:02.427Z,14.73
2023-03-02T15:48:04.918Z,12.97
2023-03-02T15:51:07.820Z,15.57
2023-03-02T15:54:11.119Z,11.60
2023-03-02T15:57:13.189Z,11.93
2023-03-02T16:00:16.254Z,14.87
2023-03-02T16:03:19.414Z,12.83
2023-03-02T16:06:22.239Z,13.33
2023-03-02T16:09:25.842Z,13.20
2023-03-02T16:12:28.132Z,17.57
2023-03-02T16:15:30.955Z,15.17
2023-03-02T16:18:33.251Z,17.00
2023-03-02T16:21:35.188Z,13.20
2023-03-02T16:24:37.508Z,14.63
2023-03-02T16:27:39.349Z,15.13
2023-03-02T16:30:44.573Z,17.17
2023-03-02T16:33:48.076Z,18.10
2023-03-02T16:36:50.096Z,12.47
2023-03-02T16:39:52.400Z,14.23
2023-03-02T16:42:54.867Z,13.20
2023-03-02T16:45:57.444Z,18.87
2023-03-02T16:48:59.951Z,16.63
2023-03-02T16:52:01.851Z,15.40
2023-03-02T16:55:08.224Z,13.27
2023-03-02T16:58:10.306Z,18.80
2023-03-02T17:01:18.733Z,14.37
2023-03-02T17:04:22.201Z,15.00
2023-03-02T17:07:24.297Z,19.43
2023-03-02T17:10:26.326Z,17.57
2023-03-02T17:13:28.596Z,15.20
2023-03-02T17:16:30.695Z,16.63
2023-03-02T17:19:32.768Z,19.03
2023-03-02T17:22:35.015Z,16.23
2023-03-02T17:25:37.026Z,16.77
2023-03-02T17:28:39.519Z,17.97
2023-03-02T17:31:41.838Z,16.30
2023-03-02T17:34:43.668Z,16.40
2023-03-02T17:37:46.239Z,19.53
2023-03-02T17:40:48.146Z,16.30
2023-03-02T17:43:50.786Z,15.93
2023-03-02T17:46:52.666Z,17.67
2023-03-02T17:49:56.468Z,15.13
2023-03-02T17:53:00.186Z,15.87
2023-03-02T17:56:02.281Z,17.27
2023-03-02T17:59:05.952Z,17.00
2023-03-02T18:02:08.648Z,23.67
2023-03-02T18:05:11.162Z,19.73
2023-03-02T18:08:13.152Z,14.17
2023-03-02T18:11:16.361Z,15.63
2023-03-02T18:14:20.420Z,15.17
2023-03-02T18:17:22.437Z,13.90
2023-03-02T18:20:24.430Z,17.67
2023-03-02T18:23:27.185Z,12.50
2023-03-02T18:26:29.345Z,16.13
2023-03-02T18:29:31.456Z,12.73
2023-03-02T18:32:33.509Z,14.00
2023-03-02T18:35:35.618Z,15.97
2023-03-02T18:38:38.610Z,15.47
2023-03-02T18:41:41.784Z,14.10
2023-03-02T18:44:43.686Z,14.67
2023-03-02T18:47:46.245Z,15.73
2023-03-02T18:50:48.966Z,16.07
2023-03-02T18:53:51.410Z,22.00
2023-03-02T18:56:54.226Z,20.20
2023-03-02T18:59:56.189Z,17.43
2023-03-02T19:02:58.019Z,17.77
2023-03-02T19:06:00.182Z,19.90
2023-03-02T19:09:02.108Z,21.03
2023-03-02T19:12:04.830Z,13.53
2023-03-02T19:15:10.707Z,13.33
2023-03-02T19:18:17.466Z,14.97
2023-03-02T19:21:19.409Z,11.67
2023-03-02T19:24:21.320Z,15.93
2023-03-02T19:27:23.204Z,13.17
2023-03-02T19:30:26.938Z,19.67
2023-03-02T19:33:29.659Z,26.70
2023-03-02T19:36:31.749Z,17.50
2023-03-02T19:39:33.685Z,20.47
2023-03-02T19:42:39.499Z,19.50
2023-03-02T19:45:41.526Z,22.30
2023-03-02T19:48:44.121Z,22.07
2023-03-02T19:51:46.002Z,23.27
2023-03-02T19:54:47.952Z,19.27
2023-03-02T19:57:56.214Z,18.93
2023-03-02T20:00:58.386Z,15.77
2023-03-02T20:04:00.376Z,16.97
2023-03-02T20:07:03.857Z,14.93
2023-03-02T20:10:07.787Z,15.70
2023-03-02T20:13:10.144Z,13.40
2023-03-02T20:16:13.813Z,13.30
2023-03-02T20:19:15.926Z,14.90
2023-03-02T20:22:17.844Z,12.53
2023-03-02T20:25:21.076Z,17.20
2023-03-02T20:28:24.557Z,14.50
2023-03-02T20:31:27.064Z,13.73
2023-03-02T20:34:29.215Z,26.23
2023-03-02T20:37:32.232Z,21.07
2023-03-02T20:40:34.468Z,27.03
2023-03-02T20:43:36.661Z,20.50
2023-03-02T20:46:45.532Z,17.93
2023-03-02T20:49:47.895Z,18.77
2023-03-02T20:52:50.263Z,19.93
2023-03-02T20:55:52.474Z,24.87
2023-03-02T20:58:54.673Z,17.10
2023-03-02T21:01:56.914Z,16.67
2023-03-02T21:04:59.271Z,15.03
2023-03-02T21:08:03.421Z,15.90
2023-03-02T21:11:11.181Z,17.57
2023-03-02T21:14:14.684Z,14.70
2023-03-02T21:17:16.541Z,17.60
2023-03-02T21:20:19.091Z,16.57
2023-03-02T21:23:21.224Z,15.40
2023-03-02T21:26:23.784Z,15.77
2023-03-02T21:29:26.946Z,18.53
2023-03-02T21:32:28.978Z,15.63
2023-03-02T21:35:31.281Z,19.37
2023-03-02T21:38:33.197Z,20.53
2023-03-02T21:41:36.472Z,16.33
2023-03-02T21:44:39.059Z,14.80
2023-03-02T21:47:42.599Z,16.30
2023-03-02T21:50:44.887Z,16.70
2023-03-02T21:53:47.429Z,19.27
2023-03-02T21:56:50.151Z,28.40
2023-03-02T21:59:55.007Z,18.40
2023-03-02T22:02:58.093Z,21.60
2023-03-02T22:06:00.029Z,20.00
2023-03-02T22:09:03.032Z,18.07
2023-03-02T22:12:13.500Z,19.10
2023-03-02T22:15:16.041Z,25.23
2023-03-02T22:18:20.402Z,25.30
2023-03-02T22:21:36.185Z,26.30
2023-03-02T22:24:39.883Z,25.00
2023-03-02T22:27:42.998Z,26.73
2023-03-02T22:30:45.389Z,21.83
2023-03-02T22:33:48.640Z,27.73
2023-03-02T22:36:50.559Z,29.13
2023-03-02T22:40:08.492Z,29.87
2023-03-02T22:43:31.119Z,24.63
2023-03-02T22:46:33.155Z,22.63
2023-03-02T22:49:35.021Z,30.23
2023-03-02T22:52:39.622Z,30.80
2023-03-02T22:55:43.230Z,28.73
2023-03-02T22:58:50.079Z,22.47
2023-03-02T23:02:00.494Z,22.10
2023-03-02T23:05:02.838Z,18.03
2023-03-02T23:08:29.973Z,22.20
2023-03-02T23:11:35.384Z,16.70
2023-03-02T23:14:53.350Z,22.20
2023-03-02T23:17:58.058Z,23.23
2023-03-02T23:21:00.058Z,18.57
2023-03-02T23:24:03.110Z,18.40
2023-03-02T23:27:05.063Z,18.50
2023-03-02T23:30:07.719Z,17.53
2023-03-02T23:33:09.779Z,21.33
2023-03-02T23:36:12.101Z,16.30
2023-03-02T23:39:14.052Z,19.87
2023-03-02T23:42:16.103Z,21.30
2023-03-02T23:45:18.171Z,17.83
2023-03-02T23:48:20.598Z,15.97
2023-03-02T23:51:26.419Z,18.57
2023-03-02T23:54:28.542Z,16.20
2023-03-02T23:57:30.438Z,17.63
